sensor_id;sensor_type;location;lat;lon;timestamp;pressure;altitude;pressure_sealevel;temperature;humidity
48041;BME280;33815;48.386;11.738;2024-01-16T00:02:05;95789.78;;;-3.14;91.09
48041;BME280;33815;48.386;11.738;2024-01-16T00:04:33;95800.19;;;-3.19;91.99
48041;BME280;33815;48.386;11.738;2024-01-16T00:06:58;95789.47;;;-3.24;91.55
48041;BME280;33815;48.386;11.738;2024-01-16T00:09:23;95805.75;;;-3.27;91.98
48041;BME280;33815;48.386;11.738;2024-01-16T00:11:49;95823.81;;;-3.15;91.66
48041;BME280;33815;48.386;11.738;2024-01-16T00:14:14;95812.94;;;-3.19;91.80
48041;BME280;33815;48.386;11.738;2024-01-16T00:16:43;95820.69;;;-3.20;92.45
48041;BME280;33815;48.386;11.738;2024-01-16T00:19:10;95806.16;;;-3.34;92.58
48041;BME280;33815;48.386;11.738;2024-01-16T00:21:39;95820.84;;;-3.23;92.43
48041;BME280;33815;48.386;11.738;2024-01-16T00:24:04;95811.00;;;-3.30;92.46
48041;BME280;33815;48.386;11.738;2024-01-16T00:26:30;95828.69;;;-3.27;92.60
48041;BME280;33815;48.386;11.738;2024-01-16T00:28:55;95832.03;;;-3.26;92.93
48041;BME280;33815;48.386;11.738;2024-01-16T00:31:20;95830.16;;;-3.22;92.19
48041;BME280;33815;48.386;11.738;2024-01-16T00:33:45;95828.91;;;-3.15;91.67
48041;BME280;33815;48.386;11.738;2024-01-16T00:36:11;95822.66;;;-3.25;91.28
48041;BME280;33815;48.386;11.738;2024-01-16T00:38:36;95829.00;;;-3.33;92.21
48041;BME280;33815;48.386;11.738;2024-01-16T00:41:01;95836.06;;;-3.22;91.64
48041;BME280;33815;48.386;11.738;2024-01-16T00:43:27;95845.53;;;-3.24;92.13
48041;BME280;33815;48.386;11.738;2024-01-16T00:45:52;95840.09;;;-3.34;93.42
48041;BME280;33815;48.386;11.738;2024-01-16T00:48:17;95837.38;;;-3.31;92.54
48041;BME280;33815;48.386;11.738;2024-01-16T00:50:44;95849.78;;;-3.24;93.30
48041;BME280;33815;48.386;11.738;2024-01-16T00:53:11;95839.84;;;-3.29;93.56
48041;BME280;33815;48.386;11.738;2024-01-16T00:55:36;95840.66;;;-3.29;92.89
48041;BME280;33815;48.386;11.738;2024-01-16T00:58:02;95843.22;;;-3.29;93.77
48041;BME280;33815;48.386;11.738;2024-01-16T01:00:27;95829.50;;;-3.42;94.14
48041;BME280;33815;48.386;11.738;2024-01-16T01:02:55;95867.72;;;-3.26;94.01
48041;BME280;33815;48.386;11.738;2024-01-16T01:05:20;95854.16;;;-3.27;93.55
48041;BME280;33815;48.386;11.738;2024-01-16T01:07:45;95845.22;;;-3.34;93.01
48041;BME280;33815;48.386;11.738;2024-01-16T01:10:11;95857.34;;;-3.23;93.34
48041;BME280;33815;48.386;11.738;2024-01-16T01:12:36;95872.00;;;-3.27;92.82
48041;BME280;33815;48.386;11.738;2024-01-16T01:15:01;95869.44;;;-3.27;93.17
48041;BME280;33815;48.386;11.738;2024-01-16T01:17:26;95871.81;;;-3.23;92.91
48041;BME280;33815;48.386;11.738;2024-01-16T01:19:52;95860.31;;;-3.31;92.27
48041;BME280;33815;48.386;11.738;2024-01-16T01:22:17;95880.38;;;-3.08;90.83
48041;BME280;33815;48.386;11.738;2024-01-16T01:24:42;95879.38;;;-3.22;91.71
48041;BME280;33815;48.386;11.738;2024-01-16T01:27:08;95884.31;;;-3.35;93.03
48041;BME280;33815;48.386;11.738;2024-01-16T01:29:33;95879.72;;;-3.28;91.05
48041;BME280;33815;48.386;11.738;2024-01-16T01:31:58;95866.25;;;-3.46;91.26
48041;BME280;33815;48.386;11.738;2024-01-16T01:34:23;95895.31;;;-3.34;91.19
48041;BME280;33815;48.386;11.738;2024-01-16T01:36:49;95903.06;;;-3.36;90.88
48041;BME280;33815;48.386;11.738;2024-01-16T01:39:14;95884.88;;;-3.46;91.06
48041;BME280;33815;48.386;11.738;2024-01-16T01:41:40;95900.44;;;-3.50;91.02
48041;BME280;33815;48.386;11.738;2024-01-16T01:44:06;95903.88;;;-3.51;89.55
48041;BME280;33815;48.386;11.738;2024-01-16T01:46:32;95898.94;;;-3.54;90.60
48041;BME280;33815;48.386;11.738;2024-01-16T01:48:59;95909.28;;;-3.57;90.76
48041;BME280;33815;48.386;11.738;2024-01-16T01:51:24;95895.28;;;-3.66;89.56
48041;BME280;33815;48.386;11.738;2024-01-16T01:53:51;95907.13;;;-3.65;89.97
48041;BME280;33815;48.386;11.738;2024-01-16T01:56:18;95910.44;;;-3.63;91.35
48041;BME280;33815;48.386;11.738;2024-01-16T01:58:45;95920.13;;;-3.70;90.80
48041;BME280;33815;48.386;11.738;2024-01-16T02:01:11;95912.78;;;-3.76;91.06
48041;BME280;33815;48.386;11.738;2024-01-16T02:03:43;95909.06;;;-3.86;92.21
48041;BME280;33815;48.386;11.738;2024-01-16T02:06:10;95927.16;;;-3.75;91.94
48041;BME280;33815;48.386;11.738;2024-01-16T02:08:35;95937.44;;;-3.76;91.44
48041;BME280;33815;48.386;11.738;2024-01-16T02:11:01;95934.44;;;-3.85;91.45
48041;BME280;33815;48.386;11.738;2024-01-16T02:13:28;95918.25;;;-4.00;90.80
48041;BME280;33815;48.386;11.738;2024-01-16T02:15:53;95942.84;;;-3.83;89.87
48041;BME280;33815;48.386;11.738;2024-01-16T02:18:18;95940.28;;;-3.83;89.15
48041;BME280;33815;48.386;11.738;2024-01-16T02:20:45;95939.78;;;-3.89;89.22
48041;BME280;33815;48.386;11.738;2024-01-16T02:23:12;95930.38;;;-4.05;89.37
48041;BME280;33815;48.386;11.738;2024-01-16T02:25:39;95953.41;;;-3.90;89.15
48041;BME280;33815;48.386;11.738;2024-01-16T02:28:05;95948.22;;;-3.89;89.05
48041;BME280;33815;48.386;11.738;2024-01-16T02:30:30;95937.25;;;-4.07;88.51
48041;BME280;33815;48.386;11.738;2024-01-16T02:32:56;95946.09;;;-4.14;89.48
48041;BME280;33815;48.386;11.738;2024-01-16T02:35:21;95953.25;;;-4.22;89.55
48041;BME280;33815;48.386;11.738;2024-01-16T02:37:46;95950.44;;;-4.34;89.45
48041;BME280;33815;48.386;11.738;2024-01-16T02:40:12;95953.94;;;-4.36;90.24
48041;BME280;33815;48.386;11.738;2024-01-16T02:42:37;95946.91;;;-4.31;89.38
48041;BME280;33815;48.386;11.738;2024-01-16T02:45:04;95958.91;;;-4.33;90.16
48041;BME280;33815;48.386;11.738;2024-01-16T02:47:29;95943.91;;;-4.39;90.29
48041;BME280;33815;48.386;11.738;2024-01-16T02:49:55;95942.13;;;-4.37;90.43
48041;BME280;33815;48.386;11.738;2024-01-16T02:52:20;95955.38;;;-4.31;90.58
48041;BME280;33815;48.386;11.738;2024-01-16T02:54:46;95957.31;;;-4.36;90.82
48041;BME280;33815;48.386;11.738;2024-01-16T02:57:11;95938.97;;;-4.42;89.94
48041;BME280;33815;48.386;11.738;2024-01-16T02:59:36;95966.31;;;-4.46;90.12
48041;BME280;33815;48.386;11.738;2024-01-16T03:02:01;95963.16;;;-4.51;91.53
48041;BME280;33815;48.386;11.738;2024-01-16T03:04:27;95952.66;;;-4.62;91.20
48041;BME280;33815;48.386;11.738;2024-01-16T03:06:53;95961.06;;;-4.43;90.77
48041;BME280;33815;48.386;11.738;2024-01-16T03:09:18;95956.13;;;-4.46;90.05
48041;BME280;33815;48.386;11.738;2024-01-16T03:11:43;95950.63;;;-4.73;90.33
48041;BME280;33815;48.386;11.738;2024-01-16T03:14:08;95959.59;;;-4.66;90.72
48041;BME280;33815;48.386;11.738;2024-01-16T03:16:34;95951.72;;;-4.79;91.43
48041;BME280;33815;48.386;11.738;2024-01-16T03:19:00;95963.91;;;-4.86;91.61
48041;BME280;33815;48.386;11.738;2024-01-16T03:21:25;95947.59;;;-4.99;91.84
48041;BME280;33815;48.386;11.738;2024-01-16T03:23:51;95959.25;;;-4.95;91.86
48041;BME280;33815;48.386;11.738;2024-01-16T03:26:17;95969.09;;;-5.06;92.14
48041;BME280;33815;48.386;11.738;2024-01-16T03:28:42;95971.81;;;-5.11;92.50
48041;BME280;33815;48.386;11.738;2024-01-16T03:31:07;95972.59;;;-5.28;92.81
48041;BME280;33815;48.386;11.738;2024-01-16T03:33:33;95966.13;;;-5.35;93.11
48041;BME280;33815;48.386;11.738;2024-01-16T03:36:00;95987.91;;;-5.29;93.01
48041;BME280;33815;48.386;11.738;2024-01-16T03:38:25;95977.53;;;-5.44;93.18
48041;BME280;33815;48.386;11.738;2024-01-16T03:40:50;95973.19;;;-5.42;93.39
48041;BME280;33815;48.386;11.738;2024-01-16T03:43:16;95977.41;;;-5.61;93.70
48041;BME280;33815;48.386;11.738;2024-01-16T03:45:42;95981.19;;;-5.70;95.02
48041;BME280;33815;48.386;11.738;2024-01-16T03:48:07;95975.16;;;-5.88;95.15
48041;BME280;33815;48.386;11.738;2024-01-16T03:50:32;95977.03;;;-5.92;95.83
48041;BME280;33815;48.386;11.738;2024-01-16T03:52:59;95984.56;;;-5.90;96.55
48041;BME280;33815;48.386;11.738;2024-01-16T03:55:24;95964.03;;;-6.05;96.47
48041;BME280;33815;48.386;11.738;2024-01-16T03:57:49;95970.97;;;-5.89;96.68
48041;BME280;33815;48.386;11.738;2024-01-16T04:00:16;95984.81;;;-5.96;96.54
48041;BME280;33815;48.386;11.738;2024-01-16T04:02:41;95981.50;;;-6.17;97.93
48041;BME280;33815;48.386;11.738;2024-01-16T04:05:07;95968.63;;;-6.33;98.71
48041;BME280;33815;48.386;11.738;2024-01-16T04:07:33;95977.44;;;-6.42;99.33
48041;BME280;33815;48.386;11.738;2024-01-16T04:09:58;95978.78;;;-6.56;100.00
48041;BME280;33815;48.386;11.738;2024-01-16T04:12:23;95984.28;;;-6.66;100.00
48041;BME280;33815;48.386;11.738;2024-01-16T04:14:49;95987.47;;;-6.83;100.00
48041;BME280;33815;48.386;11.738;2024-01-16T04:17:14;95988.63;;;-6.92;100.00
48041;BME280;33815;48.386;11.738;2024-01-16T04:19:39;95988.81;;;-6.97;100.00
48041;BME280;33815;48.386;11.738;2024-01-16T04:22:05;95979.84;;;-7.06;100.00
48041;BME280;33815;48.386;11.738;2024-01-16T04:24:30;95985.88;;;-7.08;100.00
48041;BME280;33815;48.386;11.738;2024-01-16T04:26:55;95985.22;;;-7.13;100.00
48041;BME280;33815;48.386;11.738;2024-01-16T04:29:20;95968.41;;;-7.16;100.00
48041;BME280;33815;48.386;11.738;2024-01-16T04:31:46;95995.25;;;-6.88;100.00
48041;BME280;33815;48.386;11.738;2024-01-16T04:34:11;95986.53;;;-6.81;100.00
48041;BME280;33815;48.386;11.738;2024-01-16T04:36:36;95995.00;;;-6.82;100.00
48041;BME280;33815;48.386;11.738;2024-01-16T04:39:02;95985.78;;;-6.83;100.00
48041;BME280;33815;48.386;11.738;2024-01-16T04:41:28;95989.84;;;-6.79;100.00
48041;BME280;33815;48.386;11.738;2024-01-16T04:43:53;95987.25;;;-6.77;100.00
48041;BME280;33815;48.386;11.738;2024-01-16T04:46:19;95981.09;;;-6.72;100.00
48041;BME280;33815;48.386;11.738;2024-01-16T04:48:44;95981.25;;;-6.76;100.00
48041;BME280;33815;48.386;11.738;2024-01-16T04:51:09;95964.06;;;-6.90;100.00
48041;BME280;33815;48.386;11.738;2024-01-16T04:53:35;95983.13;;;-6.80;100.00
48041;BME280;33815;48.386;11.738;2024-01-16T04:56:00;95978.16;;;-6.83;100.00
48041;BME280;33815;48.386;11.738;2024-01-16T04:58:25;95987.47;;;-6.83;100.00
48041;BME280;33815;48.386;11.738;2024-01-16T05:00:50;95979.78;;;-6.82;100.00
48041;BME280;33815;48.386;11.738;2024-01-16T05:03:16;95950.50;;;-6.89;100.00
48041;BME280;33815;48.386;11.738;2024-01-16T05:05:42;95975.09;;;-6.91;100.00
48041;BME280;33815;48.386;11.738;2024-01-16T05:08:07;95969.84;;;-6.86;100.00
48041;BME280;33815;48.386;11.738;2024-01-16T05:10:32;95960.97;;;-6.97;100.00
48041;BME280;33815;48.386;11.738;2024-01-16T05:12:58;95972.91;;;-7.00;100.00
48041;BME280;33815;48.386;11.738;2024-01-16T05:15:23;95956.34;;;-7.09;100.00
48041;BME280;33815;48.386;11.738;2024-01-16T05:17:48;95964.34;;;-7.20;100.00
48041;BME280;33815;48.386;11.738;2024-01-16T05:20:13;95976.84;;;-6.93;100.00
48041;BME280;33815;48.386;11.738;2024-01-16T05:22:39;95978.91;;;-6.81;100.00
48041;BME280;33815;48.386;11.738;2024-01-16T05:25:04;95977.84;;;-6.97;100.00
48041;BME280;33815;48.386;11.738;2024-01-16T05:27:32;95982.63;;;-7.12;100.00
48041;BME280;33815;48.386;11.738;2024-01-16T05:29:57;95985.94;;;-7.10;100.00
48041;BME280;33815;48.386;11.738;2024-01-16T05:32:23;95985.22;;;-7.13;100.00
48041;BME280;33815;48.386;11.738;2024-01-16T05:34:48;95991.78;;;-7.31;100.00
48041;BME280;33815;48.386;11.738;2024-01-16T05:37:13;95984.72;;;-7.47;100.00
48041;BME280;33815;48.386;11.738;2024-01-16T05:39:39;95964.47;;;-7.70;100.00
48041;BME280;33815;48.386;11.738;2024-01-16T05:42:04;95963.16;;;-7.57;100.00
48041;BME280;33815;48.386;11.738;2024-01-16T05:44:30;95978.66;;;-7.66;100.00
48041;BME280;33815;48.386;11.738;2024-01-16T05:46:55;95972.53;;;-7.84;100.00
48041;BME280;33815;48.386;11.738;2024-01-16T05:49:20;95981.28;;;-7.93;100.00
48041;BME280;33815;48.386;11.738;2024-01-16T05:51:46;95986.63;;;-8.02;100.00
48041;BME280;33815;48.386;11.738;2024-01-16T05:54:11;95986.69;;;-8.04;100.00
48041;BME280;33815;48.386;11.738;2024-01-16T05:56:36;95982.16;;;-8.19;100.00
48041;BME280;33815;48.386;11.738;2024-01-16T05:59:02;95990.59;;;-8.19;100.00
48041;BME280;33815;48.386;11.738;2024-01-16T06:01:27;96002.44;;;-8.21;100.00
48041;BME280;33815;48.386;11.738;2024-01-16T06:03:52;95994.78;;;-8.19;100.00
48041;BME280;33815;48.386;11.738;2024-01-16T06:06:18;95993.16;;;-8.20;100.00
48041;BME280;33815;48.386;11.738;2024-01-16T06:08:44;95976.28;;;-8.20;100.00
48041;BME280;33815;48.386;11.738;2024-01-16T06:11:10;95983.69;;;-8.15;100.00
48041;BME280;33815;48.386;11.738;2024-01-16T06:13:36;95996.97;;;-8.09;100.00
48041;BME280;33815;48.386;11.738;2024-01-16T06:16:01;95985.16;;;-8.08;100.00
48041;BME280;33815;48.386;11.738;2024-01-16T06:18:27;95998.06;;;-8.16;100.00
48041;BME280;33815;48.386;11.738;2024-01-16T06:20:52;95990.59;;;-8.19;100.00
48041;BME280;33815;48.386;11.738;2024-01-16T06:23:17;95992.13;;;-8.15;100.00
48041;BME280;33815;48.386;11.738;2024-01-16T06:25:43;95999.72;;;-8.15;100.00
48041;BME280;33815;48.386;11.738;2024-01-16T06:28:09;96003.22;;;-8.19;100.00
48041;BME280;33815;48.386;11.738;2024-01-16T06:30:34;95997.28;;;-8.18;100.00
48041;BME280;33815;48.386;11.738;2024-01-16T06:33:00;95990.41;;;-8.14;100.00
48041;BME280;33815;48.386;11.738;2024-01-16T06:35:25;95998.75;;;-8.11;100.00
48041;BME280;33815;48.386;11.738;2024-01-16T06:37:50;95996.22;;;-8.11;100.00
48041;BME280;33815;48.386;11.738;2024-01-16T06:40:16;95986.75;;;-8.05;100.00
48041;BME280;33815;48.386;11.738;2024-01-16T06:42:41;95991.22;;;-7.88;100.00
48041;BME280;33815;48.386;11.738;2024-01-16T06:45:06;95975.69;;;-7.78;100.00
48041;BME280;33815;48.386;11.738;2024-01-16T06:47:32;95979.88;;;-7.77;100.00
48041;BME280;33815;48.386;11.738;2024-01-16T06:49:58;95992.94;;;-7.64;100.00
48041;BME280;33815;48.386;11.738;2024-01-16T06:52:23;95991.22;;;-7.63;100.00
48041;BME280;33815;48.386;11.738;2024-01-16T06:54:50;95974.81;;;-7.77;100.00
48041;BME280;33815;48.386;11.738;2024-01-16T06:57:15;95969.88;;;-7.80;100.00
48041;BME280;33815;48.386;11.738;2024-01-16T06:59:40;95993.59;;;-7.59;100.00
48041;BME280;33815;48.386;11.738;2024-01-16T07:02:06;95997.63;;;-7.53;100.00
48041;BME280;33815;48.386;11.738;2024-01-16T07:04:31;95979.66;;;-7.70;100.00
48041;BME280;33815;48.386;11.738;2024-01-16T07:06:57;95989.97;;;-7.51;100.00
48041;BME280;33815;48.386;11.738;2024-01-16T07:09:24;95988.53;;;-7.59;100.00
48041;BME280;33815;48.386;11.738;2024-01-16T07:11:49;95976.97;;;-7.66;100.00
48041;BME280;33815;48.386;11.738;2024-01-16T07:14:15;95995.84;;;-7.51;100.00
48041;BME280;33815;48.386;11.738;2024-01-16T07:16:40;96000.72;;;-7.45;100.00
48041;BME280;33815;48.386;11.738;2024-01-16T07:19:05;95994.47;;;-7.36;100.00
48041;BME280;33815;48.386;11.738;2024-01-16T07:21:31;95996.78;;;-7.30;100.00
48041;BME280;33815;48.386;11.738;2024-01-16T07:23:56;95992.56;;;-7.29;100.00
48041;BME280;33815;48.386;11.738;2024-01-16T07:26:22;95989.03;;;-7.25;100.00
48041;BME280;33815;48.386;11.738;2024-01-16T07:28:48;95984.13;;;-7.30;100.00
48041;BME280;33815;48.386;11.738;2024-01-16T07:31:14;95991.44;;;-7.22;100.00
48041;BME280;33815;48.386;11.738;2024-01-16T07:33:41;95987.00;;;-7.17;100.00
48041;BME280;33815;48.386;11.738;2024-01-16T07:36:08;95995.69;;;-7.00;100.00
48041;BME280;33815;48.386;11.738;2024-01-16T07:38:33;95977.22;;;-7.02;100.00
48041;BME280;33815;48.386;11.738;2024-01-16T07:40:59;95996.06;;;-6.88;100.00
48041;BME280;33815;48.386;11.738;2024-01-16T07:43:24;95996.66;;;-6.81;100.00
48041;BME280;33815;48.386;11.738;2024-01-16T07:45:50;95997.94;;;-6.71;100.00
48041;BME280;33815;48.386;11.738;2024-01-16T07:48:15;95992.13;;;-6.73;100.00
48041;BME280;33815;48.386;11.738;2024-01-16T07:50:41;96003.25;;;-6.55;100.00
48041;BME280;33815;48.386;11.738;2024-01-16T07:53:06;96001.31;;;-6.48;100.00
48041;BME280;33815;48.386;11.738;2024-01-16T07:55:31;96004.47;;;-6.43;100.00
48041;BME280;33815;48.386;11.738;2024-01-16T07:57:56;96017.47;;;-6.30;100.00
48041;BME280;33815;48.386;11.738;2024-01-16T08:00:22;96012.88;;;-6.20;100.00
48041;BME280;33815;48.386;11.738;2024-01-16T08:02:47;96002.63;;;-6.17;100.00
48041;BME280;33815;48.386;11.738;2024-01-16T08:05:12;96013.78;;;-6.00;100.00
48041;BME280;33815;48.386;11.738;2024-01-16T08:07:38;96003.94;;;-5.88;100.00
48041;BME280;33815;48.386;11.738;2024-01-16T08:10:03;95999.28;;;-5.78;100.00
48041;BME280;33815;48.386;11.738;2024-01-16T08:12:29;95989.16;;;-5.78;100.00
48041;BME280;33815;48.386;11.738;2024-01-16T08:14:54;96001.94;;;-5.60;100.00
48041;BME280;33815;48.386;11.738;2024-01-16T08:17:19;95999.06;;;-5.53;100.00
48041;BME280;33815;48.386;11.738;2024-01-16T08:19:45;95992.41;;;-5.36;100.00
48041;BME280;33815;48.386;11.738;2024-01-16T08:22:10;96007.94;;;-5.23;100.00
48041;BME280;33815;48.386;11.738;2024-01-16T08:24:36;95997.38;;;-5.14;100.00
48041;BME280;33815;48.386;11.738;2024-01-16T08:27:01;95993.06;;;-5.12;99.27
48041;BME280;33815;48.386;11.738;2024-01-16T08:29:28;95996.13;;;-5.05;99.01
48041;BME280;33815;48.386;11.738;2024-01-16T08:31:53;95994.34;;;-5.03;98.25
48041;BME280;33815;48.386;11.738;2024-01-16T08:34:18;95994.75;;;-4.93;98.01
48041;BME280;33815;48.386;11.738;2024-01-16T08:36:44;95990.00;;;-4.82;97.19
48041;BME280;33815;48.386;11.738;2024-01-16T08:39:09;96000.03;;;-4.79;96.34
48041;BME280;33815;48.386;11.738;2024-01-16T08:41:35;95997.75;;;-4.66;97.38
48041;BME280;33815;48.386;11.738;2024-01-16T08:44:01;95980.47;;;-4.59;97.01
48041;BME280;33815;48.386;11.738;2024-01-16T08:46:26;95994.28;;;-4.28;95.85
48041;BME280;33815;48.386;11.738;2024-01-16T08:48:51;95982.91;;;-4.39;95.83
48041;BME280;33815;48.386;11.738;2024-01-16T08:51:16;96000.72;;;-4.21;95.82
48041;BME280;33815;48.386;11.738;2024-01-16T08:53:42;95991.22;;;-4.00;94.21
48041;BME280;33815;48.386;11.738;2024-01-16T08:56:07;95990.28;;;-3.64;92.44
48041;BME280;33815;48.386;11.738;2024-01-16T08:58:33;95983.91;;;-3.55;91.46
48041;BME280;33815;48.386;11.738;2024-01-16T09:01:02;95974.91;;;-3.79;92.11
48041;BME280;33815;48.386;11.738;2024-01-16T09:03:28;95975.31;;;-3.70;92.33
48041;BME280;33815;48.386;11.738;2024-01-16T09:05:53;95973.31;;;-3.48;91.51
48041;BME280;33815;48.386;11.738;2024-01-16T09:08:18;95966.50;;;-3.47;91.01
48041;BME280;33815;48.386;11.738;2024-01-16T09:10:43;95967.81;;;-3.40;92.21
48041;BME280;33815;48.386;11.738;2024-01-16T09:13:09;95966.28;;;-3.27;92.60
48041;BME280;33815;48.386;11.738;2024-01-16T09:15:34;95961.19;;;-3.11;91.15
48041;BME280;33815;48.386;11.738;2024-01-16T09:17:59;95951.56;;;-3.21;89.03
48041;BME280;33815;48.386;11.738;2024-01-16T09:20:24;95959.97;;;-3.03;87.94
48041;BME280;33815;48.386;11.738;2024-01-16T09:22:50;95958.38;;;-3.06;86.59
48041;BME280;33815;48.386;11.738;2024-01-16T09:25:15;95963.91;;;-2.98;86.31
48041;BME280;33815;48.386;11.738;2024-01-16T09:27:42;95959.72;;;-2.99;86.56
48041;BME280;33815;48.386;11.738;2024-01-16T09:30:07;95956.50;;;-2.70;85.44
48041;BME280;33815;48.386;11.738;2024-01-16T09:32:33;95948.63;;;-2.82;86.32
48041;BME280;33815;48.386;11.738;2024-01-16T09:35:01;95962.50;;;-2.71;84.21
48041;BME280;33815;48.386;11.738;2024-01-16T09:37:28;95957.91;;;-2.65;83.63
48041;BME280;33815;48.386;11.738;2024-01-16T09:39:53;95962.72;;;-2.60;83.16
48041;BME280;33815;48.386;11.738;2024-01-16T09:42:19;95968.50;;;-2.56;83.06
48041;BME280;33815;48.386;11.738;2024-01-16T09:44:45;95967.44;;;-2.52;83.12
48041;BME280;33815;48.386;11.738;2024-01-16T09:47:11;95965.81;;;-2.39;83.73
48041;BME280;33815;48.386;11.738;2024-01-16T09:49:38;95972.97;;;-2.30;82.16
48041;BME280;33815;48.386;11.738;2024-01-16T09:52:04;95962.50;;;-2.25;82.13
48041;BME280;33815;48.386;11.738;2024-01-16T09:54:30;95948.91;;;-2.26;81.81
48041;BME280;33815;48.386;11.738;2024-01-16T09:56:58;95967.38;;;-2.06;82.07
48041;BME280;33815;48.386;11.738;2024-01-16T09:59:24;95969.06;;;-1.76;81.57
48041;BME280;33815;48.386;11.738;2024-01-16T10:01:51;95970.97;;;-1.80;81.23
48041;BME280;33815;48.386;11.738;2024-01-16T10:04:17;95959.66;;;-1.90;81.30
48041;BME280;33815;48.386;11.738;2024-01-16T10:06:45;95967.25;;;-1.74;81.33
48041;BME280;33815;48.386;11.738;2024-01-16T10:09:12;95958.66;;;-1.87;78.78
48041;BME280;33815;48.386;11.738;2024-01-16T10:11:37;95965.78;;;-1.78;77.88
48041;BME280;33815;48.386;11.738;2024-01-16T10:14:03;95954.94;;;-1.82;78.90
48041;BME280;33815;48.386;11.738;2024-01-16T10:16:57;95961.78;;;-1.68;78.79
48041;BME280;33815;48.386;11.738;2024-01-16T10:19:23;95945.28;;;-1.62;78.35
48041;BME280;33815;48.386;11.738;2024-01-16T10:21:49;95943.09;;;-1.54;78.17
48041;BME280;33815;48.386;11.738;2024-01-16T10:24:14;95950.19;;;-1.30;77.50
48041;BME280;33815;48.386;11.738;2024-01-16T10:26:40;95947.53;;;-1.43;75.86
48041;BME280;33815;48.386;11.738;2024-01-16T10:29:05;95950.88;;;-1.14;78.63
48041;BME280;33815;48.386;11.738;2024-01-16T10:31:30;95935.34;;;-0.96;76.63
48041;BME280;33815;48.386;11.738;2024-01-16T10:33:56;95921.84;;;-0.71;75.96
48041;BME280;33815;48.386;11.738;2024-01-16T10:36:24;95925.19;;;-0.43;74.76
48041;BME280;33815;48.386;11.738;2024-01-16T10:38:50;95934.22;;;-0.38;73.70
48041;BME280;33815;48.386;11.738;2024-01-16T10:41:23;95936.97;;;-0.41;74.54
48041;BME280;33815;48.386;11.738;2024-01-16T10:44:06;95907.31;;;-0.18;73.28
48041;BME280;33815;48.386;11.738;2024-01-16T10:46:32;95921.78;;;-0.04;73.14
48041;BME280;33815;48.386;11.738;2024-01-16T10:49:04;95916.06;;;0.19;72.25
48041;BME280;33815;48.386;11.738;2024-01-16T10:51:31;95919.09;;;0.11;71.95
48041;BME280;33815;48.386;11.738;2024-01-16T10:53:58;95913.78;;;0.01;71.30
48041;BME280;33815;48.386;11.738;2024-01-16T10:56:29;95906.19;;;-0.13;69.88
48041;BME280;33815;48.386;11.738;2024-01-16T11:01:27;95888.97;;;-0.11;68.65
48041;BME280;33815;48.386;11.738;2024-01-16T11:03:54;95908.56;;;0.15;70.10
48041;BME280;33815;48.386;11.738;2024-01-16T11:06:22;95922.09;;;0.30;70.91
48041;BME280;33815;48.386;11.738;2024-01-16T11:08:48;95907.22;;;0.48;68.95
48041;BME280;33815;48.386;11.738;2024-01-16T11:11:15;95901.25;;;0.61;69.31
48041;BME280;33815;48.386;11.738;2024-01-16T11:13:41;95905.13;;;0.66;68.69
48041;BME280;33815;48.386;11.738;2024-01-16T11:16:10;95894.72;;;0.31;68.94
48041;BME280;33815;48.386;11.738;2024-01-16T11:18:36;95906.38;;;0.35;68.72
48041;BME280;33815;48.386;11.738;2024-01-16T11:21:05;95920.16;;;0.34;69.30
48041;BME280;33815;48.386;11.738;2024-01-16T11:23:31;95911.63;;;0.33;69.56
48041;BME280;33815;48.386;11.738;2024-01-16T11:25:56;95901.38;;;0.21;68.65
48041;BME280;33815;48.386;11.738;2024-01-16T11:28:27;95896.78;;;0.26;66.99
48041;BME280;33815;48.386;11.738;2024-01-16T11:30:53;95894.53;;;0.21;66.98
48041;BME280;33815;48.386;11.738;2024-01-16T11:35:59;95886.19;;;0.43;67.91
48041;BME280;33815;48.386;11.738;2024-01-16T11:38:26;95892.78;;;0.84;67.40
48041;BME280;33815;48.386;11.738;2024-01-16T11:40:54;95885.16;;;0.96;67.99
48041;BME280;33815;48.386;11.738;2024-01-16T11:46:08;95878.59;;;0.92;65.27
48041;BME280;33815;48.386;11.738;2024-01-16T11:48:34;95859.38;;;0.73;64.59
48041;BME280;33815;48.386;11.738;2024-01-16T11:50:59;95849.44;;;0.93;64.48
48041;BME280;33815;48.386;11.738;2024-01-16T11:53:38;95857.88;;;1.30;64.08
48041;BME280;33815;48.386;11.738;2024-01-16T11:58:48;95832.03;;;1.45;63.19
48041;BME280;33815;48.386;11.738;2024-01-16T12:01:21;95838.78;;;1.46;61.18
48041;BME280;33815;48.386;11.738;2024-01-16T12:04:01;95836.22;;;1.10;63.38
48041;BME280;33815;48.386;11.738;2024-01-16T12:06:26;95834.88;;;1.29;63.42
48041;BME280;33815;48.386;11.738;2024-01-16T12:08:52;95825.31;;;1.19;63.40
48041;BME280;33815;48.386;11.738;2024-01-16T12:11:20;95806.59;;;0.82;62.56
48041;BME280;33815;48.386;11.738;2024-01-16T12:14:01;95801.13;;;0.87;63.63
48041;BME280;33815;48.386;11.738;2024-01-16T12:16:26;95821.53;;;0.88;64.81
48041;BME280;33815;48.386;11.738;2024-01-16T12:19:09;95820.13;;;1.08;63.76
48041;BME280;33815;48.386;11.738;2024-01-16T12:21:44;95818.47;;;1.07;62.37
48041;BME280;33815;48.386;11.738;2024-01-16T12:24:11;95813.38;;;0.70;62.42
48041;BME280;33815;48.386;11.738;2024-01-16T12:26:37;95790.81;;;0.51;63.37
48041;BME280;33815;48.386;11.738;2024-01-16T12:29:02;95800.88;;;0.41;63.69
48041;BME280;33815;48.386;11.738;2024-01-16T12:31:28;95790.97;;;0.24;64.46
48041;BME280;33815;48.386;11.738;2024-01-16T12:34:07;95790.03;;;0.25;63.65
48041;BME280;33815;48.386;11.738;2024-01-16T12:36:33;95778.84;;;0.02;64.18
48041;BME280;33815;48.386;11.738;2024-01-16T12:38:59;95785.06;;;-0.15;64.23
48041;BME280;33815;48.386;11.738;2024-01-16T12:41:26;95784.50;;;-0.32;64.40
48041;BME280;33815;48.386;11.738;2024-01-16T12:43:52;95775.38;;;-0.49;66.39
48041;BME280;33815;48.386;11.738;2024-01-16T12:46:18;95778.22;;;-0.41;64.94
48041;BME280;33815;48.386;11.738;2024-01-16T12:48:44;95793.09;;;-0.33;67.42
48041;BME280;33815;48.386;11.738;2024-01-16T12:51:09;95784.97;;;-0.27;65.18
48041;BME280;33815;48.386;11.738;2024-01-16T12:53:37;95794.63;;;-0.18;65.36